Time;durP1;ratioP1;P1;durP2;ratioP2;P2;SDS_P1;SDS_P2;PMS_P1;PMS_P2;Temp;Humidity;BMP_temperature;BMP_pressure;BME280_temperature;BME280_humidity;BME280_pressure;Samples;Min_cycle;Max_cycle;Signal;HPM_P1;HPM_P2
2022/05/02 00:00:33;;;;;;;1.13;0.80;;;11.70;99.90;;;;;;5006950;28;20222;-81
2022/05/02 00:02:59;;;;;;;0.63;0.63;;;11.70;99.90;;;;;;4999979;28;20633;-81
2022/05/02 00:05:26;;;;;;;0.60;0.50;;;11.70;99.90;;;;;;5002138;28;20313;-82
2022/05/02 00:07:51;;;;;;;0.40;0.23;;;11.70;99.90;;;;;;5005644;28;20198;-82
2022/05/02 00:10:17;;;;;;;0.47;0.40;;;11.70;99.90;;;;;;5005592;28;20729;-82
2022/05/02 00:12:43;;;;;;;0.53;0.53;;;11.70;99.90;;;;;;5015390;28;20218;-81
2022/05/02 00:15:09;;;;;;;0.73;0.70;;;11.70;99.90;;;;;;5005822;28;20295;-81
2022/05/02 00:20:19;;;;;;;0.20;0.20;;;11.60;99.90;;;;;;5000149;28;20207;-81
2022/05/02 00:22:45;;;;;;;0.23;0.23;;;11.60;99.90;;;;;;5006280;28;20208;-82
2022/05/02 00:25:12;;;;;;;0.50;0.50;;;11.60;99.90;;;;;;5005660;28;20215;-82
2022/05/02 00:27:39;;;;;;;0.30;0.30;;;11.50;99.90;;;;;;5006269;28;20185;-82
2022/05/02 00:30:07;;;;;;;0.43;0.40;;;11.50;99.90;;;;;;5005846;28;20567;-82
2022/05/02 00:32:32;;;;;;;0.40;0.40;;;11.40;99.90;;;;;;5000835;28;20219;-82
2022/05/02 00:34:58;;;;;;;0.40;0.40;;;11.40;99.90;;;;;;5004868;28;20276;-81
2022/05/02 00:37:23;;;;;;;0.20;0.20;;;11.50;99.90;;;;;;4999868;28;20199;-81
2022/05/02 00:39:49;;;;;;;0.40;0.30;;;11.30;99.90;;;;;;5006229;28;20649;-81
2022/05/02 00:42:14;;;;;;;0.40;0.40;;;11.30;99.90;;;;;;4997882;28;20214;-82
2022/05/02 00:44:42;;;;;;;1.80;0.40;;;11.30;99.90;;;;;;5005395;28;20279;-81
2022/05/02 00:47:08;;;;;;;0.30;0.30;;;11.20;99.90;;;;;;4998429;28;20184;-82
2022/05/02 00:49:35;;;;;;;0.50;0.50;;;11.10;99.90;;;;;;5005889;28;20199;-82
2022/05/02 00:52:01;;;;;;;1.60;0.90;;;10.90;99.90;;;;;;4997567;28;20210;-81
2022/05/02 00:54:26;;;;;;;0.83;0.83;;;10.80;99.90;;;;;;4999696;28;20560;-81
2022/05/02 00:56:53;;;;;;;0.83;0.60;;;10.80;99.90;;;;;;5015119;28;20198;-82
2022/05/02 00:59:21;;;;;;;0.40;0.40;;;10.70;99.90;;;;;;5001099;28;20274;-81
2022/05/02 01:01:47;;;;;;;0.30;0.30;;;10.70;99.90;;;;;;5002898;28;20240;-82
2022/05/02 01:04:12;;;;;;;0.30;0.30;;;10.70;99.90;;;;;;5007685;28;21002;-81
2022/05/02 01:09:22;;;;;;;0.20;0.20;;;10.70;99.90;;;;;;5004075;28;20330;-82
2022/05/02 01:11:48;;;;;;;0.30;0.30;;;10.60;99.90;;;;;;5004778;28;20294;-81
2022/05/02 01:14:13;;;;;;;0.40;0.40;;;10.70;99.90;;;;;;5002704;28;20194;-82
2022/05/02 01:16:39;;;;;;;0.40;0.33;;;10.60;99.90;;;;;;5005080;28;20659;-82
2022/05/02 01:19:04;;;;;;;1.43;0.30;;;10.50;99.90;;;;;;5017826;28;20195;-82
2022/05/02 01:21:30;;;;;;;0.33;0.30;;;10.60;99.90;;;;;;5008964;28;20310;-81
2022/05/02 01:24:00;;;;;;;0.97;0.40;;;10.40;99.90;;;;;;5007095;28;20188;-82
2022/05/02 01:26:26;;;;;;;0.47;0.47;;;10.40;99.90;;;;;;5003208;28;20180;-81
2022/05/02 01:28:54;;;;;;;0.20;0.20;;;10.40;99.90;;;;;;5020206;28;20222;-81
2022/05/02 01:31:20;;;;;;;0.20;0.20;;;10.30;99.90;;;;;;5000848;28;20757;-82
2022/05/02 01:33:47;;;;;;;0.30;0.30;;;10.30;99.90;;;;;;5007997;28;20199;-81
2022/05/02 01:36:13;;;;;;;0.57;0.57;;;10.10;99.90;;;;;;5002401;28;20172;-82
2022/05/02 01:38:39;;;;;;;0.20;0.20;;;10.00;99.90;;;;;;5002003;28;20195;-82
2022/05/02 01:41:06;;;;;;;0.30;0.30;;;9.90;99.90;;;;;;5003328;28;20281;-82
2022/05/02 01:43:32;;;;;;;0.30;0.30;;;9.90;99.90;;;;;;5001734;28;20703;-82
2022/05/02 01:46:01;;;;;;;0.40;0.40;;;9.90;99.90;;;;;;5001431;28;20207;-81
2022/05/02 01:48:28;;;;;;;0.47;0.40;;;9.80;99.90;;;;;;5017212;28;20738;-82
2022/05/02 01:50:53;;;;;;;0.83;0.20;;;9.70;99.90;;;;;;5003477;28;20609;-82
2022/05/02 01:53:19;;;;;;;0.30;0.30;;;9.80;99.90;;;;;;5007767;28;20187;-82
2022/05/02 01:55:45;;;;;;;0.37;0.30;;;10.00;99.90;;;;;;5008333;28;20285;-81
2022/05/02 01:58:10;;;;;;;0.30;0.30;;;10.00;99.90;;;;;;5008501;28;20187;-82
2022/05/02 02:00:36;;;;;;;0.87;0.20;;;10.00;99.90;;;;;;5000157;28;20194;-82
2022/05/02 02:03:01;;;;;;;0.40;0.40;;;9.90;99.90;;;;;;5001154;28;20187;-81
2022/05/02 02:08:11;;;;;;;1.27;0.90;;;9.80;99.90;;;;;;5001945;28;20691;-81
2022/05/02 02:10:38;;;;;;;0.40;0.40;;;9.70;99.90;;;;;;5007636;28;20195;-82
2022/05/02 02:13:04;;;;;;;0.20;0.20;;;9.60;99.90;;;;;;5006968;28;20224;-81
2022/05/02 02:15:29;;;;;;;0.40;0.40;;;9.50;99.90;;;;;;5003944;28;20677;-82
2022/05/02 02:17:55;;;;;;;0.70;0.70;;;9.50;99.90;;;;;;5007606;28;20218;-81
2022/05/02 02:20:20;;;;;;;0.20;0.20;;;9.40;99.90;;;;;;5006687;28;20192;-81
2022/05/02 02:22:46;;;;;;;0.57;0.53;;;9.40;99.90;;;;;;5006492;28;20215;-82
2022/05/02 02:25:12;;;;;;;0.27;0.27;;;9.50;99.90;;;;;;5007918;28;20213;-81
2022/05/02 02:27:37;;;;;;;1.93;0.60;;;9.50;99.90;;;;;;5003429;28;20187;-81
2022/05/02 02:30:03;;;;;;;0.53;0.40;;;9.60;99.90;;;;;;5017080;28;20183;-81
2022/05/02 02:32:29;;;;;;;0.50;0.50;;;9.50;99.90;;;;;;5015216;28;20210;-81
2022/05/02 02:34:54;;;;;;;0.47;0.47;;;9.60;99.90;;;;;;5001926;28;20260;-81
2022/05/02 02:37:19;;;;;;;0.43;0.40;;;9.70;99.90;;;;;;5001455;28;20628;-81
2022/05/02 02:39:45;;;;;;;0.30;0.30;;;9.70;99.90;;;;;;5006851;28;20203;-82
2022/05/02 02:42:11;;;;;;;0.37;0.37;;;9.70;99.90;;;;;;4999985;28;21047;-81
2022/05/02 02:44:37;;;;;;;0.40;0.40;;;9.80;99.90;;;;;;4999227;28;20280;-82
2022/05/02 02:47:03;;;;;;;0.33;0.27;;;9.90;99.90;;;;;;5001154;28;20201;-81
2022/05/02 02:49:29;;;;;;;6.03;1.40;;;9.80;99.90;;;;;;5001361;28;20237;-81
2022/05/02 02:51:54;;;;;;;2.47;0.50;;;9.80;99.90;;;;;;5006127;28;20203;-81
2022/05/02 02:54:20;;;;;;;0.30;0.30;;;9.70;99.90;;;;;;5006579;28;20184;-81
2022/05/02 02:56:46;;;;;;;0.40;0.40;;;9.60;99.90;;;;;;5005273;28;20222;-82
2022/05/02 02:59:12;;;;;;;0.60;0.50;;;9.50;99.90;;;;;;4998549;28;20191;-81
2022/05/02 03:01:37;;;;;;;0.33;0.33;;;9.40;99.90;;;;;;5001286;28;20721;-81
2022/05/02 03:06:01;;;;;;;0.43;0.30;;;9.30;99.90;;;;;;5001101;28;20208;-81
2022/05/02 03:06:49;;;;;;;0.70;0.63;;;9.20;99.90;;;;;;4999296;28;20191;-82
2022/05/02 03:09:15;;;;;;;0.53;0.40;;;9.20;99.90;;;;;;5001751;28;20179;-82
2022/05/02 03:11:40;;;;;;;1.33;0.40;;;9.20;99.90;;;;;;5016753;28;20218;-82
2022/05/02 03:14:06;;;;;;;0.37;0.17;;;9.20;99.90;;;;;;5005351;28;20199;-82
2022/05/02 03:16:31;;;;;;;2.70;0.70;;;9.20;99.90;;;;;;5006325;28;20218;-81
2022/05/02 03:18:57;;;;;;;0.40;0.40;;;9.20;99.90;;;;;;5014450;28;20184;-81
2022/05/02 03:21:22;;;;;;;0.30;0.30;;;9.30;99.90;;;;;;5001483;28;20266;-81
2022/05/02 03:23:48;;;;;;;0.20;0.20;;;9.30;99.90;;;;;;4998274;28;20652;-81
2022/05/02 03:26:14;;;;;;;0.10;0.10;;;9.30;99.90;;;;;;5001073;28;20259;-82
2022/05/02 03:28:40;;;;;;;0.50;0.50;;;9.20;99.90;;;;;;5000676;28;20184;-81
2022/05/02 03:31:05;;;;;;;0.43;0.40;;;9.10;99.90;;;;;;5005149;28;20230;-82
2022/05/02 03:33:31;;;;;;;0.57;0.57;;;9.10;99.90;;;;;;5005504;28;20570;-82
2022/05/02 03:35:56;;;;;;;0.27;0.27;;;9.20;99.90;;;;;;4999750;28;20229;-81
2022/05/02 03:38:22;;;;;;;0.43;0.43;;;9.10;99.90;;;;;;5015472;28;20198;-81
2022/05/02 03:40:47;;;;;;;0.20;0.20;;;9.10;99.90;;;;;;5000444;28;20305;-81
2022/05/02 03:43:13;;;;;;;0.40;0.40;;;9.00;99.90;;;;;;4999672;28;20187;-82
2022/05/02 03:45:38;;;;;;;0.20;0.20;;;9.10;99.90;;;;;;5002296;28;20276;-81
2022/05/02 03:48:05;;;;;;;0.50;0.40;;;9.00;99.90;;;;;;4999951;28;20210;-81
2022/05/02 03:50:30;;;;;;;0.13;0.13;;;9.00;99.90;;;;;;5016174;28;20184;-81
2022/05/02 03:52:56;;;;;;;1.43;0.40;;;9.10;99.90;;;;;;4998712;28;20199;-82
2022/05/02 03:55:22;;;;;;;2.73;0.40;;;9.10;99.90;;;;;;5000340;28;20195;-82
2022/05/02 03:57:47;;;;;;;0.73;0.73;;;9.10;99.90;;;;;;5000035;28;20660;-81
2022/05/02 04:00:13;;;;;;;0.47;0.47;;;9.00;99.90;;;;;;5005358;28;20179;-82
2022/05/02 04:02:39;;;;;;;0.20;0.20;;;8.80;99.90;;;;;;4997200;28;20241;-82
2022/05/02 04:05:05;;;;;;;0.20;0.20;;;8.80;99.90;;;;;;4999193;28;20225;-82
2022/05/02 04:07:31;;;;;;;0.40;0.40;;;8.80;99.90;;;;;;5000531;28;20203;-82
2022/05/02 04:09:56;;;;;;;0.10;0.10;;;8.80;99.90;;;;;;5000537;28;20182;-81
2022/05/02 04:12:22;;;;;;;0.47;0.47;;;8.90;99.90;;;;;;5004218;28;20316;-81
2022/05/02 04:14:47;;;;;;;0.50;0.23;;;8.90;99.90;;;;;;5000735;28;20237;-81
2022/05/02 04:17:13;;;;;;;0.57;0.57;;;9.00;99.90;;;;;;5014941;28;20197;-81
2022/05/02 04:19:38;;;;;;;0.50;0.50;;;9.00;99.90;;;;;;5015899;28;20201;-81
2022/05/02 04:22:04;;;;;;;0.43;0.43;;;9.00;99.90;;;;;;4996867;28;20561;-82
2022/05/02 04:24:30;;;;;;;0.53;0.50;;;8.90;99.90;;;;;;5005631;28;20228;-82
2022/05/02 04:26:57;;;;;;;0.47;0.37;;;8.90;99.90;;;;;;5006128;28;20219;-81
2022/05/02 04:29:22;;;;;;;0.50;0.40;;;8.90;99.90;;;;;;5004989;28;20188;-82
2022/05/02 04:31:48;;;;;;;0.30;0.30;;;8.90;99.90;;;;;;5006302;28;20217;-81
2022/05/02 04:34:14;;;;;;;1.60;0.67;;;8.90;99.90;;;;;;5005515;28;20190;-82
2022/05/02 04:36:39;;;;;;;0.97;0.47;;;9.00;99.90;;;;;;5010177;28;20190;-81
2022/05/02 04:39:05;;;;;;;0.20;0.20;;;9.10;99.90;;;;;;5019701;28;20610;-81
2022/05/02 04:41:31;;;;;;;0.60;0.50;;;9.00;99.90;;;;;;5009662;28;20270;-81
2022/05/02 04:43:57;;;;;;;0.60;0.60;;;9.00;99.90;;;;;;5009652;28;20274;-81
2022/05/02 04:46:23;;;;;;;0.43;0.43;;;9.10;99.90;;;;;;5008270;28;20313;-81
2022/05/02 04:48:48;;;;;;;0.70;0.40;;;9.10;99.90;;;;;;5016899;28;20210;-82
2022/05/02 04:51:14;;;;;;;0.77;0.67;;;9.20;99.90;;;;;;5002317;28;20258;-82
2022/05/02 04:53:39;;;;;;;0.50;0.50;;;9.20;99.90;;;;;;5001856;28;20286;-82
2022/05/02 04:56:05;;;;;;;0.30;0.30;;;9.30;99.90;;;;;;5009152;28;20248;-82
2022/05/02 04:58:31;;;;;;;1.33;0.67;;;9.50;99.90;;;;;;5010099;28;20197;-81
2022/05/02 05:00:56;;;;;;;0.20;0.20;;;9.50;99.90;;;;;;5003902;28;20277;-81
2022/05/02 05:03:22;;;;;;;0.90;0.47;;;9.80;99.90;;;;;;5003532;28;20560;-81
2022/05/02 05:05:48;;;;;;;0.87;0.43;;;9.80;99.90;;;;;;5004302;28;20268;-82
2022/05/02 05:08:14;;;;;;;0.53;0.53;;;9.90;99.90;;;;;;5008986;28;20190;-81
2022/05/02 05:11:31;;;;;;;1.53;0.30;;;10.00;99.90;;;;;;5008399;28;20560;-80
2022/05/02 05:17:59;;;;;;;0.60;0.60;;;10.20;99.90;;;;;;5000438;28;20737;-79
2022/05/02 05:20:57;;;;;;;0.20;0.20;;;10.30;99.90;;;;;;4999701;28;20214;-79
2022/05/02 05:23:45;;;;;;;0.43;0.43;;;10.40;99.90;;;;;;4999567;28;20230;-79
2022/05/02 05:26:20;;;;;;;0.50;0.40;;;10.40;99.90;;;;;;5015162;28;20274;-78
2022/05/02 05:28:59;;;;;;;1.20;1.13;;;10.60;99.90;;;;;;4997293;28;20274;-78
2022/05/02 05:31:30;;;;;;;0.63;0.40;;;10.80;99.90;;;;;;5002337;28;20730;-81
2022/05/02 05:34:06;;;;;;;0.23;0.23;;;10.90;99.90;;;;;;5004238;28;20172;-81
2022/05/02 05:36:53;;;;;;;0.20;0.20;;;11.00;99.90;;;;;;5004156;28;20245;-81
2022/05/02 05:39:36;;;;;;;0.87;0.33;;;11.20;99.90;;;;;;5005594;28;20540;-82
2022/05/02 05:42:16;;;;;;;0.57;0.57;;;11.40;99.90;;;;;;5003909;28;20203;-81
2022/05/02 05:44:58;;;;;;;0.20;0.20;;;11.60;99.90;;;;;;5005123;28;20767;-82
2022/05/02 05:47:42;;;;;;;0.23;0.23;;;11.60;99.90;;;;;;5006279;28;20190;-81
2022/05/02 05:50:24;;;;;;;0.47;0.40;;;11.90;99.90;;;;;;5019539;28;20194;-81
2022/05/02 05:53:07;;;;;;;0.30;0.30;;;12.10;99.90;;;;;;5009145;28;20207;-81
2022/05/02 05:55:56;;;;;;;0.20;0.20;;;12.10;99.90;;;;;;5017296;28;20282;-81
2022/05/02 05:58:45;;;;;;;0.83;0.80;;;12.10;99.90;;;;;;5019894;28;20188;-81
2022/05/02 06:01:14;;;;;;;0.10;0.10;;;12.30;99.90;;;;;;5018740;28;20265;-82
2022/05/02 06:04:09;;;;;;;0.50;0.50;;;12.50;99.90;;;;;;5004123;28;20199;-82
2022/05/02 06:06:35;;;;;;;0.50;0.50;;;12.40;99.90;;;;;;5003967;28;20180;-81
2022/05/02 06:09:02;;;;;;;0.43;0.43;;;12.60;99.90;;;;;;5001799;28;20192;-81
2022/05/02 06:11:29;;;;;;;0.77;0.77;;;12.90;99.90;;;;;;5002951;28;20616;-81
2022/05/02 06:13:58;;;;;;;0.20;0.20;;;13.10;99.90;;;;;;5002755;28;20888;-81
2022/05/02 06:19:15;;;;;;;0.60;0.60;;;13.50;99.90;;;;;;5003553;28;20280;-81
2022/05/02 06:21:43;;;;;;;0.33;0.33;;;13.00;99.90;;;;;;5009241;28;20222;-81
2022/05/02 06:24:11;;;;;;;0.77;0.77;;;13.30;99.90;;;;;;5001637;28;20312;-81
2022/05/02 06:26:38;;;;;;;3.00;0.83;;;13.40;99.90;;;;;;5008682;28;20193;-81
2022/05/02 06:29:07;;;;;;;1.13;1.03;;;13.20;99.90;;;;;;5002736;28;20345;-81
2022/05/02 06:31:39;;;;;;;1.47;0.77;;;13.10;99.90;;;;;;5001508;28;20207;-81
2022/05/02 06:34:06;;;;;;;0.53;0.53;;;13.00;99.90;;;;;;5001928;28;20173;-81
2022/05/02 06:36:47;;;;;;;0.60;0.47;;;13.20;99.90;;;;;;5007118;28;20187;-80
2022/05/02 06:39:44;;;;;;;0.50;0.47;;;13.20;99.90;;;;;;4991964;28;20189;-80
2022/05/02 06:42:21;;;;;;;0.83;0.63;;;13.20;99.90;;;;;;4999138;28;20234;-80
2022/05/02 06:45:09;;;;;;;1.43;0.60;;;13.20;99.90;;;;;;5013209;28;20581;-79
2022/05/02 06:47:53;;;;;;;0.37;0.37;;;13.40;99.90;;;;;;5000018;28;20190;-80
2022/05/02 06:50:23;;;;;;;1.10;1.10;;;13.80;99.90;;;;;;5014928;28;20284;-79
2022/05/02 06:53:04;;;;;;;0.57;0.40;;;13.90;99.90;;;;;;5012574;28;20694;-79
2022/05/02 06:55:29;;;;;;;0.90;0.50;;;14.10;99.90;;;;;;4999905;28;20238;-79
2022/05/02 06:58:16;;;;;;;0.40;0.40;;;14.40;99.90;;;;;;5013606;28;20222;-80
2022/05/02 07:00:57;;;;;;;0.47;0.47;;;14.50;99.90;;;;;;5015150;28;20980;-80
2022/05/02 07:03:49;;;;;;;0.50;0.50;;;14.50;99.90;;;;;;5012622;28;20179;-80
2022/05/02 07:06:32;;;;;;;1.13;1.03;;;14.50;99.90;;;;;;5012925;28;20183;-80
2022/05/02 07:09:03;;;;;;;0.97;0.80;;;14.40;99.90;;;;;;5004901;28;20224;-80
2022/05/02 07:11:54;;;;;;;0.40;0.40;;;14.50;99.90;;;;;;4997052;28;20681;-80
2022/05/02 07:14:35;;;;;;;0.53;0.53;;;14.60;99.90;;;;;;5013689;28;20270;-79
2022/05/02 07:17:13;;;;;;;0.53;0.53;;;14.90;99.90;;;;;;4997428;28;20200;-80
2022/05/02 07:19:38;;;;;;;1.13;0.90;;;14.90;99.90;;;;;;4999818;28;20187;-80
2022/05/02 07:22:08;;;;;;;2.10;0.80;;;14.90;99.90;;;;;;5013780;28;20210;-80
2022/05/02 07:25:09;;;;;;;0.40;0.40;;;15.00;99.90;;;;;;5004100;28;20218;-79
2022/05/02 07:27:47;;;;;;;2.60;1.20;;;15.20;99.90;;;;;;5011909;28;20193;-80
2022/05/02 07:30:14;;;;;;;2.60;0.93;;;14.90;99.90;;;;;;4998177;28;20277;-79
2022/05/02 07:32:40;;;;;;;1.20;1.10;;;15.00;99.90;;;;;;4995610;28;20206;-79
2022/05/02 07:35:07;;;;;;;0.70;0.70;;;15.20;99.90;;;;;;5003730;28;20665;-80
2022/05/02 07:37:35;;;;;;;2.20;1.13;;;15.30;99.90;;;;;;4999999;28;20187;-80
2022/05/02 07:40:06;;;;;;;1.13;0.60;;;15.30;99.90;;;;;;4998980;28;20259;-80
2022/05/02 07:42:33;;;;;;;0.63;0.63;;;15.50;99.90;;;;;;5013601;28;20227;-80
2022/05/02 07:45:00;;;;;;;0.60;0.57;;;15.80;99.90;;;;;;5014248;28;20730;-80
2022/05/02 07:47:31;;;;;;;0.67;0.67;;;16.50;99.90;;;;;;4998958;28;20382;-80
2022/05/02 07:49:57;;;;;;;1.00;0.60;;;16.90;99.90;;;;;;4999975;28;20551;-80
2022/05/02 07:52:25;;;;;;;0.93;0.60;;;17.20;99.90;;;;;;4997638;28;20210;-80
2022/05/02 07:54:52;;;;;;;1.00;0.90;;;16.60;99.90;;;;;;4998746;28;20306;-80
2022/05/02 07:57:21;;;;;;;0.93;0.87;;;16.70;99.90;;;;;;4998576;28;20194;-80
2022/05/02 07:59:50;;;;;;;0.77;0.77;;;16.70;99.90;;;;;;5003990;28;20195;-80
2022/05/02 08:02:18;;;;;;;0.53;0.53;;;17.20;99.90;;;;;;4995937;28;20206;-80
2022/05/02 08:04:45;;;;;;;1.37;0.60;;;17.30;99.90;;;;;;4995237;28;20268;-80
2022/05/02 08:07:14;;;;;;;1.00;0.97;;;17.40;99.90;;;;;;4998412;28;20289;-80
2022/05/02 08:09:51;;;;;;;0.90;0.90;;;17.70;99.90;;;;;;4995868;28;20194;-80
2022/05/02 08:12:51;;;;;;;0.73;0.43;;;18.00;99.90;;;;;;4996925;28;20195;-80
2022/05/02 08:15:43;;;;;;;1.03;0.67;;;17.90;99.90;;;;;;5002722;28;20197;-80
2022/05/02 08:18:45;;;;;;;0.83;0.60;;;18.20;99.90;;;;;;4997028;28;20187;-80
2022/05/02 08:21:16;;;;;;;0.97;0.97;;;17.90;99.90;;;;;;5014553;28;20210;-80
2022/05/02 08:27:16;;;;;;;0.50;0.50;;;17.80;99.90;;;;;;4997993;28;20218;-79
2022/05/02 08:30:20;;;;;;;0.80;0.80;;;18.10;99.90;;;;;;5012931;28;20554;-80
2022/05/02 08:33:06;;;;;;;0.47;0.47;;;18.20;99.90;;;;;;5002865;28;20698;-80
2022/05/02 08:35:47;;;;;;;1.10;1.00;;;17.80;99.90;;;;;;4997966;28;20274;-80
2022/05/02 08:38:31;;;;;;;1.30;1.20;;;17.70;99.90;;;;;;5013005;28;20229;-79
2022/05/02 08:41:09;;;;;;;0.80;0.80;;;16.90;99.90;;;;;;4996610;28;20206;-79
2022/05/02 08:44:16;;;;;;;1.13;1.03;;;16.40;99.90;;;;;;4997512;28;20190;-79
2022/05/02 08:47:28;;;;;;;1.70;0.70;;;16.50;99.90;;;;;;4995366;28;20183;-79
2022/05/02 08:50:10;;;;;;;0.60;0.60;;;17.00;99.90;;;;;;4999404;28;20898;-80
2022/05/02 08:53:05;;;;;;;0.50;0.50;;;17.50;99.90;;;;;;4997422;28;20214;-79
2022/05/02 08:55:47;;;;;;;0.80;0.73;;;17.70;99.90;;;;;;4996406;28;20176;-79
2022/05/02 08:58:18;;;;;;;1.20;0.83;;;18.00;99.90;;;;;;4997006;28;20215;-79
2022/05/02 09:00:53;;;;;;;0.50;0.50;;;18.00;99.90;;;;;;5012779;28;20187;-79
2022/05/02 09:03:46;;;;;;;0.70;0.70;;;18.30;99.90;;;;;;5002372;28;20179;-79
2022/05/02 09:06:51;;;;;;;0.50;0.50;;;18.40;99.90;;;;;;5010886;28;20204;-83
2022/05/02 09:09:51;;;;;;;0.37;0.37;;;18.10;99.90;;;;;;4998022;28;20265;-80
2022/05/02 09:12:35;;;;;;;0.43;0.43;;;17.60;99.90;;;;;;4995730;28;21002;-80
2022/05/02 09:15:41;;;;;;;1.10;1.00;;;17.80;99.90;;;;;;5011955;28;20187;-80
2022/05/02 09:18:24;;;;;;;0.87;0.83;;;17.90;99.90;;;;;;5012249;28;20689;-79
2022/05/02 09:21:08;;;;;;;0.60;0.60;;;17.70;99.90;;;;;;4996711;28;20184;-80
2022/05/02 09:24:02;;;;;;;0.70;0.70;;;18.30;99.90;;;;;;5001339;28;20190;-80
2022/05/02 09:26:55;;;;;;;0.63;0.63;;;19.00;99.90;;;;;;5014156;28;20214;-79
2022/05/02 09:29:41;;;;;;;0.97;0.37;;;19.20;99.90;;;;;;5006469;28;20177;-79
2022/05/02 09:32:40;;;;;;;0.80;0.80;;;19.40;99.90;;;;;;4999409;28;20199;-80
2022/05/02 09:35:15;;;;;;;1.47;1.33;;;19.20;99.90;;;;;;5002981;28;20190;-80
2022/05/02 09:37:46;;;;;;;2.07;1.00;;;18.80;99.90;;;;;;5002431;28;20247;-80
2022/05/02 09:40:14;;;;;;;0.77;0.70;;;18.90;99.90;;;;;;5006832;28;20704;-80
2022/05/02 09:42:56;;;;;;;0.77;0.77;;;19.70;99.90;;;;;;4996552;28;20274;-79
2022/05/02 09:51:59;;;;;;;1.43;0.90;;;19.20;99.90;;;;;;4999507;28;20207;-80
2022/05/02 09:57:22;;;;;;;0.43;0.43;;;19.30;99.90;;;;;;4999653;28;20556;-80
2022/05/02 10:01:06;;;;;;;1.53;1.27;;;19.10;99.90;;;;;;5005058;28;20182;-79
2022/05/02 10:02:44;;;;;;;1.73;1.07;;;19.60;99.90;;;;;;4998157;28;20681;-79
2022/05/02 10:05:13;;;;;;;1.90;1.80;;;20.30;99.90;;;;;;4998922;28;20213;-80
2022/05/02 10:08:08;;;;;;;1.30;1.00;;;19.90;99.90;;;;;;5014934;28;20195;-79
2022/05/02 10:11:11;;;;;;;0.77;0.60;;;20.00;99.90;;;;;;4998346;28;20600;-80
2022/05/02 10:13:59;;;;;;;3.00;2.73;;;20.00;99.90;;;;;;5014292;28;20179;-79
2022/05/02 10:16:52;;;;;;;1.33;1.23;;;20.50;99.90;;;;;;5000102;28;20175;-80
2022/05/02 10:19:52;;;;;;;0.80;0.80;;;20.30;99.90;;;;;;5015769;28;20183;-80
2022/05/02 10:22:30;;;;;;;2.33;0.60;;;20.00;99.90;;;;;;5001275;28;20323;-80
2022/05/02 10:25:13;;;;;;;1.00;1.00;;;20.00;99.90;;;;;;5000179;28;20203;-79
2022/05/02 10:28:06;;;;;;;2.17;0.70;;;19.80;99.90;;;;;;5001877;28;20216;-79
2022/05/02 10:31:13;;;;;;;0.70;0.70;;;20.00;99.90;;;;;;4998798;28;20178;-80
2022/05/02 10:33:49;;;;;;;1.63;1.13;;;20.50;99.90;;;;;;4993606;28;20199;-80
2022/05/02 10:36:15;;;;;;;1.53;1.10;;;21.00;99.90;;;;;;5003261;28;20694;-80
2022/05/02 10:38:53;;;;;;;0.80;0.80;;;20.90;99.90;;;;;;4999763;28;20187;-80
2022/05/02 10:41:27;;;;;;;1.17;1.07;;;20.80;99.90;;;;;;5014492;28;20210;-80
2022/05/02 10:44:01;;;;;;;1.20;1.10;;;20.80;99.90;;;;;;5014165;28;20190;-80
2022/05/02 10:46:28;;;;;;;0.60;0.60;;;20.80;99.90;;;;;;5006083;28;20333;-80
2022/05/02 10:49:19;;;;;;;1.43;1.33;;;20.80;99.90;;;;;;4999974;28;20201;-79
2022/05/02 10:52:14;;;;;;;1.20;0.90;;;20.10;99.90;;;;;;4999833;28;20204;-80
2022/05/02 10:54:46;;;;;;;2.00;1.20;;;19.90;99.90;;;;;;4999245;28;20286;-80
2022/05/02 10:57:45;;;;;;;0.60;0.60;;;19.40;99.90;;;;;;4998890;28;20608;-80
2022/05/02 11:00:12;;;;;;;1.07;0.97;;;19.80;99.90;;;;;;4994168;28;20202;-80
2022/05/02 11:02:59;;;;;;;1.60;1.07;;;19.50;99.90;;;;;;5014481;28;20203;-80
2022/05/02 11:05:43;;;;;;;2.87;1.47;;;19.70;99.90;;;;;;5014053;28;20207;-80
2022/05/02 11:08:11;;;;;;;0.60;0.60;;;19.80;99.90;;;;;;4999921;28;20218;-79
2022/05/02 11:10:58;;;;;;;0.70;0.70;;;19.90;99.90;;;;;;4999177;28;20181;-80
2022/05/02 11:13:31;;;;;;;1.00;0.90;;;19.90;99.90;;;;;;5004471;28;20662;-80
2022/05/02 11:16:26;;;;;;;2.17;0.87;;;19.80;99.90;;;;;;5014143;28;20195;-80
2022/05/02 11:22:10;;;;;;;1.60;1.50;;;19.80;99.90;;;;;;5003132;28;20586;-79
2022/05/02 11:25:15;;;;;;;1.20;1.17;;;20.70;99.90;;;;;;4998551;28;20199;-80
2022/05/02 11:27:55;;;;;;;1.00;1.00;;;20.30;99.90;;;;;;5000295;28;20285;-80
2022/05/02 11:30:28;;;;;;;1.83;1.10;;;20.30;99.90;;;;;;5013475;28;20258;-80
2022/05/02 11:32:54;;;;;;;1.40;1.00;;;20.70;99.90;;;;;;5002022;28;20207;-80
2022/05/02 11:35:32;;;;;;;0.70;0.70;;;20.90;99.90;;;;;;5014646;28;20662;-80
2022/05/02 11:38:09;;;;;;;1.40;0.80;;;21.20;99.90;;;;;;5010739;28;20211;-80
2022/05/02 11:40:53;;;;;;;1.10;1.00;;;21.60;99.90;;;;;;4997763;28;20190;-80
2022/05/02 11:43:23;;;;;;;1.73;1.57;;;21.10;99.90;;;;;;5004442;28;20194;-79
2022/05/02 11:46:05;;;;;;;1.10;1.10;;;20.70;99.90;;;;;;5014406;28;20234;-79
2022/05/02 11:48:30;;;;;;;0.57;0.57;;;21.00;99.90;;;;;;4999890;28;20190;-80
2022/05/02 11:50:56;;;;;;;0.77;0.77;;;21.30;99.90;;;;;;5016688;28;20661;-80
2022/05/02 11:53:24;;;;;;;1.47;1.37;;;21.50;99.90;;;;;;5006565;28;20201;-82
2022/05/02 11:55:51;;;;;;;3.90;1.13;;;20.70;99.90;;;;;;4999002;28;20211;-80
2022/05/02 11:58:34;;;;;;;2.03;1.17;;;20.80;99.90;;;;;;5003547;28;20183;-80
2022/05/02 12:01:06;;;;;;;2.03;1.33;;;20.70;99.90;;;;;;4998777;28;20219;-83
2022/05/02 12:03:54;;;;;;;2.20;1.63;;;20.30;99.90;;;;;;5001703;28;20720;-80
2022/05/02 12:06:36;;;;;;;1.00;1.00;;;20.90;99.90;;;;;;4999054;28;20681;-80
2022/05/02 12:09:07;;;;;;;1.10;1.00;;;21.20;99.90;;;;;;5005817;28;20707;-80
2022/05/02 12:11:54;;;;;;;1.50;1.40;;;21.20;99.90;;;;;;4998827;28;20672;-80
2022/05/02 12:14:21;;;;;;;2.53;1.60;;;21.00;99.90;;;;;;5013080;28;20175;-80
2022/05/02 12:17:09;;;;;;;2.00;1.00;;;20.80;99.90;;;;;;5004982;28;20189;-80
2022/05/02 12:19:36;;;;;;;1.07;1.07;;;21.40;99.90;;;;;;4996236;28;20186;-80
2022/05/02 12:22:04;;;;;;;1.00;1.00;;;21.60;99.90;;;;;;5003888;28;20298;-79
2022/05/02 12:24:33;;;;;;;1.70;0.90;;;21.80;99.90;;;;;;4998043;28;20673;-80
2022/05/02 12:26:59;;;;;;;1.07;1.07;;;22.30;99.90;;;;;;4999218;28;20202;-80
2022/05/02 12:29:27;;;;;;;1.50;0.87;;;22.20;99.90;;;;;;5012427;28;20263;-80
2022/05/02 12:31:57;;;;;;;0.80;0.80;;;21.90;99.90;;;;;;5004929;28;20230;-80
2022/05/02 12:34:43;;;;;;;1.30;1.20;;;21.70;99.90;;;;;;4997009;28;20179;-80
2022/05/02 12:37:27;;;;;;;1.30;1.20;;;21.00;99.90;;;;;;4998264;28;20186;-80
2022/05/02 12:40:06;;;;;;;0.77;0.70;;;20.60;99.90;;;;;;5013832;28;20187;-80
2022/05/02 12:42:44;;;;;;;1.40;1.33;;;20.80;99.90;;;;;;5005437;28;20783;-79
2022/05/02 12:45:13;;;;;;;1.87;0.90;;;20.60;99.90;;;;;;4997915;28;20195;-80
2022/05/02 12:48:14;;;;;;;7.17;1.50;;;20.70;99.90;;;;;;4997568;28;20172;-80
2022/05/02 12:50:45;;;;;;;0.77;0.77;;;21.20;99.90;;;;;;4997724;28;20187;-80
2022/05/02 12:54:09;;;;;;;1.97;1.20;;;21.70;99.90;;;;;;4995591;28;20218;-80
2022/05/02 12:56:05;;;;;;;2.93;1.70;;;21.10;99.90;;;;;;4999177;28;20194;-80
2022/05/02 13:01:23;;;;;;;1.03;0.90;;;21.30;99.90;;;;;;5000459;28;20210;-80
2022/05/02 13:03:57;;;;;;;0.83;0.80;;;21.30;99.90;;;;;;5001757;28;20256;-80
2022/05/02 13:06:24;;;;;;;1.57;0.90;;;21.70;99.90;;;;;;5000351;28;20303;-80
2022/05/02 13:08:50;;;;;;;2.10;1.57;;;22.10;99.90;;;;;;5008927;28;20191;-80
2022/05/02 13:11:21;;;;;;;2.90;1.03;;;22.10;99.90;;;;;;5007449;28;20223;-80
2022/05/02 13:13:56;;;;;;;2.43;1.03;;;21.80;99.90;;;;;;5007668;28;20281;-80
2022/05/02 13:16:26;;;;;;;1.97;1.13;;;21.40;99.90;;;;;;5000975;28;20183;-80
2022/05/02 13:18:53;;;;;;;1.50;1.00;;;21.50;99.90;;;;;;5001631;28;20322;-80
2022/05/02 13:21:19;;;;;;;1.37;1.17;;;21.50;99.90;;;;;;5007059;28;20207;-79
2022/05/02 13:23:51;;;;;;;1.97;1.50;;;21.30;99.90;;;;;;4999198;28;20191;-79
2022/05/02 13:26:36;;;;;;;0.40;0.40;;;21.00;99.90;;;;;;5007715;28;20195;-80
2022/05/02 13:29:14;;;;;;;0.87;0.87;;;21.80;99.90;;;;;;4999681;28;20190;-79
2022/05/02 13:31:44;;;;;;;1.43;1.17;;;22.40;99.90;;;;;;5006668;28;20202;-80
2022/05/02 13:34:34;;;;;;;0.90;0.90;;;21.70;99.90;;;;;;5015383;28;20182;-79
2022/05/02 13:37:12;;;;;;;1.47;1.37;;;21.40;99.90;;;;;;5015075;28;20180;-80
2022/05/02 13:40:08;;;;;;;1.07;1.07;;;21.30;99.90;;;;;;5000722;28;20252;-80
2022/05/02 13:42:51;;;;;;;1.13;0.87;;;21.80;99.90;;;;;;4998660;28;20204;-80
2022/05/02 13:45:42;;;;;;;0.87;0.70;;;21.90;99.90;;;;;;5015519;28;20866;-79
2022/05/02 13:48:18;;;;;;;1.20;1.10;;;22.10;99.90;;;;;;5000425;28;20179;-79
2022/05/02 13:51:18;;;;;;;1.30;0.70;;;22.30;99.90;;;;;;5017781;28;20186;-80
2022/05/02 13:53:51;;;;;;;1.00;0.83;;;22.60;99.90;;;;;;4999146;28;20211;-80
2022/05/02 13:56:53;;;;;;;2.20;2.07;;;22.70;99.90;;;;;;4999963;28;20219;-79
2022/05/02 13:59:40;;;;;;;2.00;1.37;;;22.70;99.90;;;;;;4999063;28;20258;-80